createdAt,value
2018-03-22T00:02:55.832Z,83.02
2018-03-22T00:06:01.367Z,82.71
2018-03-22T00:09:06.930Z,83.29
2018-03-22T00:12:12.443Z,82.70
2018-03-22T00:15:17.752Z,82.55
2018-03-22T00:18:23.499Z,83.04
2018-03-22T00:21:29.196Z,82.54
2018-03-22T00:24:34.700Z,82.77
2018-03-22T00:27:40.256Z,82.60
2018-03-22T00:30:45.838Z,82.51
2018-03-22T00:33:53.703Z,82.30
2018-03-22T00:36:59.257Z,82.46
2018-03-22T00:40:04.470Z,82.60
2018-03-22T00:43:10.028Z,82.36
2018-03-22T00:46:15.548Z,82.29
2018-03-22T00:49:21.163Z,82.21
2018-03-22T00:52:26.534Z,82.59
2018-03-22T00:55:32.077Z,82.27
2018-03-22T00:58:37.666Z,82.42
2018-03-22T01:01:43.234Z,82.30
2018-03-22T01:04:48.746Z,82.36
2018-03-22T01:07:54.356Z,82.19
2018-03-22T01:10:59.882Z,82.17
2018-03-22T01:14:05.483Z,82.43
2018-03-22T01:17:11.040Z,82.14
2018-03-22T01:20:16.629Z,82.28
2018-03-22T01:23:22.138Z,82.82
2018-03-22T01:26:27.708Z,82.45
2018-03-22T01:29:33.220Z,82.22
2018-03-22T01:32:38.779Z,82.43
2018-03-22T01:35:44.290Z,82.75
2018-03-22T01:38:49.851Z,82.49
2018-03-22T01:41:55.366Z,82.58
2018-03-22T01:45:00.963Z,82.62
2018-03-22T01:48:06.486Z,82.51
2018-03-22T01:51:12.064Z,82.59
2018-03-22T01:54:17.622Z,82.65
2018-03-22T01:57:23.140Z,82.85
2018-03-22T02:00:40.532Z,82.66
2018-03-22T02:03:59.676Z,82.59
2018-03-22T02:07:24.666Z,82.75
2018-03-22T02:10:45.643Z,83.01
2018-03-22T02:14:01.768Z,83.04
2018-03-22T02:17:13.076Z,83.04
2018-03-22T02:24:02.674Z,82.94
2018-03-22T02:27:14.258Z,82.98
2018-03-22T02:34:01.668Z,83.12
2018-03-22T02:37:18.958Z,83.17
2018-03-22T02:40:33.549Z,83.27
2018-03-22T02:43:54.889Z,83.40
2018-03-22T02:47:17.273Z,83.25
2018-03-22T02:50:43.701Z,83.12
2018-03-22T02:54:11.486Z,83.22
2018-03-22T02:57:28.067Z,83.13
2018-03-22T03:00:41.114Z,83.53
2018-03-22T03:04:01.691Z,83.27
2018-03-22T03:07:15.936Z,83.22
2018-03-22T03:10:25.117Z,83.67
2018-03-22T03:13:34.426Z,83.59
2018-03-22T03:16:42.900Z,83.84
2018-03-22T03:19:52.088Z,83.65
2018-03-22T03:22:59.732Z,83.66
2018-03-22T03:26:06.796Z,83.80
2018-03-22T03:29:12.682Z,83.73
2018-03-22T03:32:18.248Z,83.86
2018-03-22T03:35:23.844Z,83.82
2018-03-22T03:38:29.421Z,83.58
2018-03-22T03:41:34.973Z,83.87
2018-03-22T03:44:40.598Z,83.95
2018-03-22T03:47:46.106Z,84.04
2018-03-22T03:50:51.697Z,84.04
2018-03-22T03:53:57.215Z,84.00
2018-03-22T03:57:02.796Z,84.03
2018-03-22T04:00:08.362Z,84.40
2018-03-22T04:03:14.229Z,84.38
2018-03-22T04:06:19.807Z,84.28
2018-03-22T04:09:25.391Z,84.19
2018-03-22T04:12:31.133Z,84.62
2018-03-22T04:15:36.701Z,84.28
2018-03-22T04:18:42.298Z,84.25
2018-03-22T04:21:47.815Z,84.61
2018-03-22T04:24:53.449Z,84.30
2018-03-22T04:27:58.983Z,84.58
2018-03-22T04:31:04.544Z,84.55
2018-03-22T04:34:10.131Z,84.58
2018-03-22T04:37:15.649Z,84.71
2018-03-22T04:40:21.222Z,84.79
2018-03-22T04:43:26.751Z,84.72
2018-03-22T04:46:32.318Z,84.55
2018-03-22T04:49:37.882Z,84.75
2018-03-22T04:52:43.414Z,84.90
2018-03-22T04:55:48.993Z,84.90
2018-03-22T04:58:54.577Z,84.91
2018-03-22T05:02:00.107Z,84.97
2018-03-22T05:05:05.707Z,84.96
2018-03-22T05:08:11.258Z,84.99
2018-03-22T05:11:16.818Z,85.47
2018-03-22T05:14:22.387Z,85.30
2018-03-22T05:17:28.858Z,85.68
2018-03-22T05:20:35.602Z,85.46
2018-03-22T05:23:41.175Z,85.45
2018-03-22T05:26:46.749Z,85.39
2018-03-22T05:29:52.303Z,85.96
2018-03-22T05:32:57.837Z,85.79
2018-03-22T05:36:03.438Z,85.57
2018-03-22T05:39:09.049Z,85.99
2018-03-22T05:42:14.622Z,85.98
2018-03-22T05:45:20.412Z,85.77
2018-03-22T05:48:26.043Z,85.52
2018-03-22T05:51:31.572Z,85.66
2018-03-22T05:54:37.239Z,85.59
2018-03-22T05:57:49.436Z,85.61
2018-03-22T06:00:55.444Z,85.81
2018-03-22T06:04:01.013Z,85.92
2018-03-22T06:07:06.663Z,85.75
2018-03-22T06:10:12.469Z,85.74
2018-03-22T06:13:18.217Z,85.77
2018-03-22T06:16:23.881Z,85.85
2018-03-22T06:19:29.455Z,85.75
2018-03-22T06:22:34.973Z,86.27
2018-03-22T06:25:40.606Z,85.91
2018-03-22T06:28:46.317Z,85.92
2018-03-22T06:31:51.991Z,86.01
2018-03-22T06:34:57.574Z,85.68
2018-03-22T06:38:03.123Z,85.96
2018-03-22T06:41:08.686Z,86.01
2018-03-22T06:44:14.238Z,86.02
2018-03-22T06:47:19.791Z,85.94
2018-03-22T06:50:25.356Z,86.03
2018-03-22T06:53:47.235Z,85.88
2018-03-22T06:56:52.746Z,85.98
2018-03-22T06:59:58.366Z,85.92
2018-03-22T07:03:03.900Z,86.18
2018-03-22T07:06:09.454Z,85.96
2018-03-22T07:09:14.979Z,86.08
2018-03-22T07:12:20.765Z,85.71
2018-03-22T07:15:30.856Z,86.06
2018-03-22T07:18:38.059Z,86.36
2018-03-22T07:21:43.712Z,85.98
2018-03-22T07:24:49.254Z,86.36
2018-03-22T07:27:54.780Z,86.11
2018-03-22T07:31:00.324Z,86.03
2018-03-22T07:34:10.074Z,86.07
2018-03-22T07:37:15.613Z,85.97
2018-03-22T07:40:21.113Z,86.49
2018-03-22T07:43:32.137Z,86.04
2018-03-22T07:46:37.708Z,86.59
2018-03-22T07:49:43.286Z,86.05
2018-03-22T07:52:48.768Z,86.54
2018-03-22T07:55:54.314Z,86.45
2018-03-22T07:58:59.740Z,86.85
2018-03-22T08:02:05.445Z,86.37
2018-03-22T08:05:10.981Z,86.71
2018-03-22T08:08:16.480Z,86.43
2018-03-22T08:11:22.025Z,86.36
2018-03-22T08:14:27.634Z,86.58
2018-03-22T08:17:33.167Z,86.98
2018-03-22T08:20:38.716Z,86.42
2018-03-22T08:23:44.222Z,86.81
2018-03-22T08:26:49.755Z,86.39
2018-03-22T08:29:55.241Z,86.43
2018-03-22T08:33:00.784Z,86.35
2018-03-22T08:36:06.294Z,85.96
2018-03-22T08:39:11.822Z,86.31
2018-03-22T08:42:17.337Z,86.21
2018-03-22T08:45:22.890Z,86.36
2018-03-22T08:48:28.429Z,86.54
2018-03-22T08:51:33.970Z,86.05
2018-03-22T08:54:39.462Z,85.78
2018-03-22T08:57:44.989Z,86.17
2018-03-22T09:00:50.546Z,86.86
2018-03-22T09:03:56.036Z,86.92
2018-03-22T09:07:01.625Z,86.70
2018-03-22T09:10:07.138Z,86.17
2018-03-22T09:13:12.691Z,86.33
2018-03-22T09:16:18.185Z,86.87
2018-03-22T09:19:23.718Z,86.77
2018-03-22T09:22:29.279Z,86.14
2018-03-22T09:25:34.981Z,86.37
2018-03-22T09:28:40.512Z,86.69
2018-03-22T09:31:46.037Z,85.95
2018-03-22T09:34:51.581Z,86.39
2018-03-22T09:37:57.345Z,86.92
2018-03-22T09:41:02.885Z,86.89
2018-03-22T09:44:08.146Z,86.14
2018-03-22T09:47:13.705Z,86.27
2018-03-22T09:50:19.245Z,86.14
2018-03-22T09:53:24.786Z,86.26
2018-03-22T09:56:30.369Z,86.99
2018-03-22T09:59:35.922Z,86.33
2018-03-22T10:02:41.446Z,86.76
2018-03-22T10:05:46.990Z,86.28
2018-03-22T10:08:52.530Z,86.47
2018-03-22T10:11:58.065Z,86.98
2018-03-22T10:15:03.558Z,87.02
2018-03-22T10:18:15.145Z,86.59
2018-03-22T10:21:21.645Z,86.77
2018-03-22T10:24:27.187Z,86.20
2018-03-22T10:27:32.685Z,87.34
2018-03-22T10:30:38.225Z,87.47
2018-03-22T10:33:43.757Z,86.96
2018-03-22T10:36:49.316Z,86.91
2018-03-22T10:39:54.853Z,87.12
2018-03-22T10:43:00.445Z,86.62
2018-03-22T10:46:05.995Z,86.57
2018-03-22T10:49:11.498Z,87.46
2018-03-22T10:52:17.086Z,87.54
2018-03-22T10:55:22.623Z,87.49
2018-03-22T10:58:28.258Z,88.03
2018-03-22T11:01:39.191Z,87.10
2018-03-22T11:04:44.740Z,87.05
2018-03-22T11:07:50.221Z,86.98
2018-03-22T11:10:56.009Z,87.12
2018-03-22T11:14:01.493Z,86.62
2018-03-22T11:17:07.041Z,86.32
2018-03-22T11:20:12.540Z,86.74
2018-03-22T11:23:18.094Z,86.48
2018-03-22T11:26:23.666Z,86.42
2018-03-22T11:29:29.249Z,85.75
2018-03-22T11:32:34.795Z,85.46
2018-03-22T11:35:40.340Z,85.20
2018-03-22T11:38:45.893Z,86.23
2018-03-22T11:41:51.393Z,85.76
2018-03-22T11:44:56.929Z,86.07
2018-03-22T11:48:02.522Z,87.27
2018-03-22T11:51:08.071Z,86.41
2018-03-22T11:54:13.581Z,86.62
2018-03-22T11:57:19.238Z,86.51
2018-03-22T12:00:24.794Z,87.10
2018-03-22T12:03:34.496Z,86.59
2018-03-22T12:06:40.081Z,86.73
2018-03-22T12:09:45.616Z,87.05
2018-03-22T12:12:51.258Z,86.56
2018-03-22T12:15:56.797Z,87.22
2018-03-22T12:19:02.098Z,87.08
2018-03-22T12:22:07.638Z,87.22
2018-03-22T12:25:13.177Z,87.00
2018-03-22T12:28:24.876Z,86.47
2018-03-22T12:31:30.372Z,86.29
2018-03-22T12:34:35.923Z,86.27
2018-03-22T12:37:41.423Z,86.95
2018-03-22T12:40:47.199Z,87.21
2018-03-22T12:43:52.705Z,86.18
2018-03-22T12:46:58.233Z,86.86
2018-03-22T12:50:03.773Z,86.16
2018-03-22T12:53:09.320Z,86.09
2018-03-22T12:56:14.670Z,86.17
2018-03-22T12:59:25.879Z,85.89
2018-03-22T13:02:32.181Z,86.30
2018-03-22T13:05:37.716Z,86.50
2018-03-22T13:08:43.240Z,85.93
2018-03-22T13:11:48.834Z,86.39
2018-03-22T13:14:54.338Z,85.90
2018-03-22T13:17:59.871Z,86.21
2018-03-22T13:21:05.405Z,86.01
2018-03-22T13:24:11.100Z,86.12
2018-03-22T13:27:22.802Z,86.24
2018-03-22T13:30:31.238Z,86.45
2018-03-22T13:33:36.537Z,86.31
2018-03-22T13:36:42.032Z,86.29
2018-03-22T13:39:47.586Z,86.23
2018-03-22T13:42:53.118Z,86.21
2018-03-22T13:45:58.736Z,86.52
2018-03-22T13:49:04.385Z,86.64
2018-03-22T13:52:09.912Z,86.30
2018-03-22T13:55:15.456Z,86.08
2018-03-22T13:58:21.002Z,85.96
2018-03-22T14:01:26.498Z,86.06
2018-03-22T14:04:32.040Z,85.96
2018-03-22T14:07:37.577Z,86.17
2018-03-22T14:10:43.088Z,86.16
2018-03-22T14:13:48.627Z,85.93
2018-03-22T14:16:54.112Z,86.44
2018-03-22T14:19:59.649Z,86.21
2018-03-22T14:23:05.215Z,86.25
2018-03-22T14:26:10.518Z,86.07
2018-03-22T14:29:16.053Z,86.20
2018-03-22T14:32:21.577Z,86.19
2018-03-22T14:35:27.066Z,86.35
2018-03-22T14:38:32.597Z,86.10
2018-03-22T14:41:38.216Z,85.83
2018-03-22T14:44:43.989Z,86.36
2018-03-22T14:47:49.473Z,86.28
2018-03-22T14:50:55.005Z,86.03
2018-03-22T14:54:00.540Z,86.01
2018-03-22T14:57:06.041Z,86.35
2018-03-22T15:00:11.656Z,86.51
2018-03-22T15:03:17.166Z,86.31
2018-03-22T15:06:22.771Z,85.98
2018-03-22T15:09:28.498Z,86.33
2018-03-22T15:12:34.020Z,86.09
2018-03-22T15:15:39.574Z,85.93
2018-03-22T15:18:45.119Z,86.21
2018-03-22T15:21:50.612Z,86.17
2018-03-22T15:24:56.151Z,86.09
2018-03-22T15:28:01.638Z,86.05
2018-03-22T15:31:07.184Z,86.10
2018-03-22T15:34:12.756Z,85.91
2018-03-22T15:37:18.568Z,85.91
2018-03-22T15:40:24.122Z,86.39
2018-03-22T15:43:29.770Z,86.07
2018-03-22T15:46:35.420Z,85.94
2018-03-22T15:49:40.962Z,85.88
2018-03-22T15:52:46.450Z,86.35
2018-03-22T15:55:52.012Z,86.03
2018-03-22T15:58:57.560Z,86.04
2018-03-22T16:02:03.065Z,85.78
2018-03-22T16:05:08.604Z,85.51
2018-03-22T16:08:14.198Z,85.55
2018-03-22T16:11:23.056Z,86.49
2018-03-22T16:14:31.183Z,85.88
2018-03-22T16:17:36.682Z,86.05
2018-03-22T16:20:58.339Z,86.00
2018-03-22T16:24:03.980Z,85.72
2018-03-22T16:27:09.640Z,85.84
2018-03-22T16:30:15.130Z,86.12
2018-03-22T16:33:25.687Z,85.91
2018-03-22T16:36:49.288Z,85.76
2018-03-22T16:40:00.303Z,85.87
2018-03-22T16:43:06.757Z,85.65
2018-03-22T16:46:22.274Z,86.21
2018-03-22T16:49:30.809Z,85.83
2018-03-22T16:52:37.729Z,85.96
2018-03-22T16:55:49.829Z,86.13
2018-03-22T16:58:56.821Z,86.17
2018-03-22T17:02:04.982Z,86.33
2018-03-22T17:05:14.297Z,86.16
2018-03-22T17:08:24.698Z,85.87
2018-03-22T17:11:33.199Z,85.67
2018-03-22T17:14:39.469Z,85.68
2018-03-22T17:17:48.192Z,85.71
2018-03-22T17:20:55.078Z,86.12
2018-03-22T17:24:03.902Z,85.96
2018-03-22T17:27:09.394Z,86.02
2018-03-22T17:30:35.248Z,85.79
2018-03-22T17:33:42.158Z,86.12
2018-03-22T17:36:50.894Z,85.55
2018-03-22T17:40:01.966Z,85.60
2018-03-22T17:43:09.989Z,85.53
2018-03-22T17:46:15.779Z,85.71
2018-03-22T17:49:26.336Z,85.60
2018-03-22T17:52:32.529Z,85.64
2018-03-22T17:55:40.138Z,85.52
2018-03-22T17:58:47.349Z,85.59
2018-03-22T18:01:53.704Z,85.61
2018-03-22T18:05:09.802Z,85.76
2018-03-22T18:08:16.017Z,85.74
2018-03-22T18:11:23.385Z,86.00
2018-03-22T18:14:29.993Z,85.80
2018-03-22T18:17:35.655Z,85.85
2018-03-22T18:20:41.162Z,86.12
2018-03-22T18:23:46.791Z,86.41
2018-03-22T18:26:52.516Z,85.91
2018-03-22T18:29:58.065Z,86.21
2018-03-22T18:33:03.897Z,86.10
2018-03-22T18:36:09.448Z,86.07
2018-03-22T18:39:15.201Z,86.06
2018-03-22T18:42:22.844Z,86.08
2018-03-22T18:45:28.603Z,85.95
2018-03-22T18:48:34.155Z,86.02
2018-03-22T18:51:39.985Z,86.04
2018-03-22T18:54:45.712Z,85.96
2018-03-22T18:57:51.252Z,85.89
2018-03-22T19:00:56.827Z,86.21
2018-03-22T19:04:02.361Z,86.31
2018-03-22T19:07:16.714Z,86.03
2018-03-22T19:10:23.689Z,86.50
2018-03-22T19:13:34.600Z,86.43
2018-03-22T19:16:41.233Z,86.22
2018-03-22T19:19:48.620Z,86.53
2018-03-22T19:22:54.450Z,86.34
2018-03-22T19:26:02.305Z,86.03
2018-03-22T19:29:08.013Z,86.57
2018-03-22T19:32:13.578Z,86.38
2018-03-22T19:35:19.994Z,86.84
2018-03-22T19:38:26.340Z,86.29
2018-03-22T19:41:32.990Z,86.41
2018-03-22T19:44:39.188Z,86.43
2018-03-22T19:47:44.822Z,86.24
2018-03-22T19:50:50.406Z,86.42
2018-03-22T19:53:59.221Z,86.46
2018-03-22T19:57:05.328Z,86.22
2018-03-22T20:00:10.931Z,86.34
2018-03-22T20:03:16.494Z,86.24
2018-03-22T20:06:22.134Z,86.22
2018-03-22T20:09:39.980Z,86.18
2018-03-22T20:12:48.397Z,86.47
2018-03-22T20:15:53.997Z,86.08
2018-03-22T20:18:59.734Z,86.27
2018-03-22T20:22:05.469Z,86.16
2018-03-22T20:25:13.246Z,86.57
2018-03-22T20:28:18.858Z,86.32
2018-03-22T20:31:28.577Z,86.63
2018-03-22T20:34:44.233Z,86.53
2018-03-22T20:37:52.720Z,86.25
2018-03-22T20:41:06.686Z,86.40
2018-03-22T20:44:25.885Z,86.64
2018-03-22T20:47:35.890Z,86.44
2018-03-22T20:50:45.024Z,86.46
2018-03-22T20:53:57.876Z,86.58
2018-03-22T20:57:17.618Z,86.90
2018-03-22T21:00:35.441Z,86.33
2018-03-22T21:03:55.951Z,86.28
2018-03-22T21:07:22.948Z,86.59
2018-03-22T21:11:05.339Z,86.72
2018-03-22T21:14:25.022Z,86.68
2018-03-22T21:17:35.034Z,86.47
2018-03-22T21:20:58.495Z,86.47
2018-03-22T21:24:43.438Z,86.72
2018-03-22T21:28:12.979Z,86.52
2018-03-22T21:31:38.750Z,86.59
2018-03-22T21:35:05.566Z,86.40
2018-03-22T21:38:54.012Z,86.59
2018-03-22T21:42:22.200Z,86.32
2018-03-22T21:46:05.122Z,86.66
2018-03-22T21:49:49.815Z,86.22
2018-03-22T21:53:21.044Z,86.48
2018-03-22T21:57:04.932Z,86.69
2018-03-22T22:00:51.499Z,86.51
2018-03-22T22:04:22.512Z,86.29
2018-03-22T22:07:52.654Z,86.68
2018-03-22T22:11:36.118Z,86.50
2018-03-22T22:15:06.995Z,86.52
2018-03-22T22:18:39.190Z,86.30
2018-03-22T22:22:09.285Z,86.46
2018-03-22T22:25:24.425Z,86.48
2018-03-22T22:28:29.937Z,86.35
2018-03-22T22:31:35.501Z,86.10
2018-03-22T22:34:41.017Z,86.21
2018-03-22T22:37:46.578Z,86.26
2018-03-22T22:40:52.122Z,86.41
2018-03-22T22:43:57.994Z,86.19
2018-03-22T22:47:03.523Z,86.29
2018-03-22T22:50:09.114Z,86.33
2018-03-22T22:53:14.615Z,86.40
2018-03-22T22:56:20.170Z,86.61
2018-03-22T22:59:25.680Z,86.55
2018-03-22T23:02:33.317Z,86.25
2018-03-22T23:05:40.330Z,86.48
2018-03-22T23:08:45.898Z,86.30
2018-03-22T23:11:51.478Z,86.35
2018-03-22T23:14:57.052Z,86.18
2018-03-22T23:18:02.628Z,86.46
2018-03-22T23:21:08.154Z,86.37
2018-03-22T23:24:13.707Z,86.25
2018-03-22T23:27:19.231Z,86.51
2018-03-22T23:30:24.802Z,86.41
2018-03-22T23:33:30.354Z,86.22
2018-03-22T23:36:35.942Z,86.35
2018-03-22T23:39:41.463Z,86.42
2018-03-22T23:42:47.014Z,86.34
2018-03-22T23:45:52.538Z,86.32
2018-03-22T23:48:58.108Z,86.22
2018-03-22T23:52:03.608Z,86.44
2018-03-22T23:55:09.195Z,86.45
2018-03-22T23:58:14.545Z,86.57
